Time;durP1;ratioP1;P1;durP2;ratioP2;P2;SDS_P1;SDS_P2;PMS_P1;PMS_P2;Temp;Humidity;BMP_temperature;BMP_pressure;BME280_temperature;BME280_humidity;BME280_pressure;Samples;Min_cycle;Max_cycle;Signal;HPM_P1;HPM_P2
2021/06/12 00:01:35;;;;;;;23.50;5.82;;;;;;;;;;4921001;29;20031;-79
2021/06/12 00:04:00;;;;;;;21.15;5.63;;;;;;;;;;4936769;29;20032;-79
2021/06/12 00:06:25;;;;;;;20.63;6.00;;;;;;;;;;4936768;29;20121;-79
2021/06/12 00:08:50;;;;;;;21.63;5.35;;;;;;;;;;4917197;29;20024;-79
2021/06/12 00:11:16;;;;;;;28.85;6.20;;;;;;;;;;4921286;29;20031;-79
2021/06/12 00:13:41;;;;;;;25.60;5.93;;;;;;;;;;4929407;29;20390;-79
2021/06/12 00:16:06;;;;;;;19.63;5.70;;;;;;;;;;4941247;29;20032;-79
2021/06/12 00:18:31;;;;;;;25.98;5.78;;;;;;;;;;4939445;29;20028;-79
2021/06/12 00:20:57;;;;;;;21.25;5.43;;;;;;;;;;4940171;29;20091;-80
2021/06/12 00:23:23;;;;;;;21.08;6.00;;;;;;;;;;4939411;29;20033;-79
2021/06/12 00:25:48;;;;;;;28.42;6.35;;;;;;;;;;4940343;29;20043;-79
2021/06/12 00:28:14;;;;;;;27.63;6.57;;;;;;;;;;4938664;29;20015;-79
2021/06/12 00:30:39;;;;;;;24.30;6.10;;;;;;;;;;4940110;29;20051;-79
2021/06/12 00:33:04;;;;;;;29.83;6.53;;;;;;;;;;4940441;29;20028;-79
2021/06/12 00:35:30;;;;;;;20.08;5.85;;;;;;;;;;4939838;29;20042;-79
2021/06/12 00:37:55;;;;;;;25.02;6.13;;;;;;;;;;4939732;29;20035;-79
2021/06/12 00:40:21;;;;;;;21.58;6.20;;;;;;;;;;4919442;29;20525;-79
2021/06/12 00:42:47;;;;;;;21.77;5.97;;;;;;;;;;4935579;29;20024;-78
2021/06/12 00:45:18;;;;;;;28.02;7.13;;;;;;;;;;4938099;29;20028;-79
2021/06/12 00:47:43;;;;;;;28.73;6.53;;;;;;;;;;4938152;29;20469;-78
2021/06/12 00:50:09;;;;;;;26.50;6.47;;;;;;;;;;4937833;29;20056;-78
2021/06/12 00:52:37;;;;;;;22.38;6.20;;;;;;;;;;4939452;29;20020;-79
2021/06/12 00:55:02;;;;;;;24.33;6.40;;;;;;;;;;4938994;29;20023;-79
2021/06/12 00:57:28;;;;;;;25.80;6.25;;;;;;;;;;4938687;29;20046;-79
2021/06/12 00:59:53;;;;;;;26.90;6.15;;;;;;;;;;4938661;29;20031;-79
2021/06/12 01:02:18;;;;;;;22.75;6.10;;;;;;;;;;4939491;29;20016;-79
2021/06/12 01:04:43;;;;;;;22.73;5.70;;;;;;;;;;4937499;29;20473;-79
2021/06/12 01:07:09;;;;;;;26.50;6.35;;;;;;;;;;4936915;29;20028;-79
2021/06/12 01:09:34;;;;;;;28.67;6.13;;;;;;;;;;4939176;29;20082;-79
2021/06/12 01:12:05;;;;;;;27.17;5.93;;;;;;;;;;4937805;29;20043;-79
2021/06/12 01:14:31;;;;;;;19.80;5.78;;;;;;;;;;4937047;29;20042;-79
2021/06/12 01:16:58;;;;;;;21.80;5.70;;;;;;;;;;4938302;29;20042;-79
2021/06/12 01:19:39;;;;;;;15.38;4.93;;;;;;;;;;4937273;29;20032;-79
2021/06/12 01:22:30;;;;;;;21.27;5.18;;;;;;;;;;4953536;28;20031;-79
2021/06/12 01:24:55;;;;;;;25.38;5.95;;;;;;;;;;4936517;29;20043;-79
2021/06/12 01:27:27;;;;;;;22.17;5.87;;;;;;;;;;4937701;29;20473;-79
2021/06/12 01:30:02;;;;;;;18.90;5.07;;;;;;;;;;4933284;29;20270;-79
2021/06/12 01:32:29;;;;;;;20.33;5.30;;;;;;;;;;4938943;29;20526;-79
2021/06/12 01:34:56;;;;;;;24.95;5.38;;;;;;;;;;4933251;29;20027;-79
2021/06/12 01:37:22;;;;;;;22.95;5.20;;;;;;;;;;4934667;29;20074;-79
2021/06/12 01:39:49;;;;;;;18.48;4.85;;;;;;;;;;4936879;29;20012;-79
2021/06/12 01:42:15;;;;;;;18.17;4.22;;;;;;;;;;4938559;29;20064;-79
2021/06/12 01:44:41;;;;;;;17.35;4.47;;;;;;;;;;4938086;29;20028;-79
2021/06/12 01:47:07;;;;;;;16.38;4.25;;;;;;;;;;4937936;29;20032;-79
2021/06/12 01:49:33;;;;;;;18.05;4.13;;;;;;;;;;4939056;29;20087;-79
2021/06/12 01:51:59;;;;;;;18.17;4.57;;;;;;;;;;4938154;29;20028;-78
2021/06/12 01:54:25;;;;;;;22.10;5.07;;;;;;;;;;4922227;29;20028;-79
2021/06/12 01:56:51;;;;;;;20.38;4.70;;;;;;;;;;4921602;29;20031;-78
2021/06/12 01:59:18;;;;;;;17.60;4.45;;;;;;;;;;4952891;29;20453;-78
2021/06/12 02:01:48;;;;;;;17.00;3.95;;;;;;;;;;4934804;29;20034;-79
2021/06/12 02:04:13;;;;;;;20.42;4.75;;;;;;;;;;4936879;29;20035;-79
2021/06/12 02:06:40;;;;;;;18.83;4.22;;;;;;;;;;4936260;29;20381;-78
2021/06/12 02:09:06;;;;;;;17.50;4.05;;;;;;;;;;4931504;29;20027;-79
2021/06/12 02:11:31;;;;;;;18.27;4.60;;;;;;;;;;4936021;29;20358;-79
2021/06/12 02:13:57;;;;;;;16.35;3.92;;;;;;;;;;4938670;29;20015;-79
2021/06/12 02:16:24;;;;;;;18.40;3.80;;;;;;;;;;4919720;29;20031;-78
2021/06/12 02:18:50;;;;;;;19.35;3.95;;;;;;;;;;4939335;29;20057;-78
2021/06/12 02:21:16;;;;;;;20.77;4.25;;;;;;;;;;4936643;29;20213;-78
2021/06/12 02:23:41;;;;;;;12.63;3.25;;;;;;;;;;4936587;29;20106;-79
2021/06/12 02:26:07;;;;;;;12.80;3.33;;;;;;;;;;4939090;29;20474;-79
2021/06/12 02:28:34;;;;;;;18.70;3.75;;;;;;;;;;4919367;29;20410;-79
2021/06/12 02:31:04;;;;;;;16.10;3.38;;;;;;;;;;4921648;29;20027;-79
2021/06/12 02:33:30;;;;;;;21.17;4.13;;;;;;;;;;4935594;29;20035;-79
2021/06/12 02:35:56;;;;;;;15.85;3.70;;;;;;;;;;4937531;29;20118;-79
2021/06/12 02:38:23;;;;;;;15.23;3.63;;;;;;;;;;4935120;29;20055;-79
2021/06/12 02:40:48;;;;;;;18.80;3.90;;;;;;;;;;4937143;29;20023;-79
2021/06/12 02:43:13;;;;;;;15.13;3.35;;;;;;;;;;4936409;29;20075;-79
2021/06/12 02:45:40;;;;;;;17.40;3.42;;;;;;;;;;4920221;29;20028;-79
2021/06/12 02:48:12;;;;;;;13.13;3.30;;;;;;;;;;4936375;29;20035;-78
2021/06/12 02:50:37;;;;;;;20.08;3.22;;;;;;;;;;4936678;29;20032;-79
2021/06/12 02:53:04;;;;;;;12.95;3.58;;;;;;;;;;4937584;29;20094;-79
2021/06/12 02:55:32;;;;;;;18.23;3.50;;;;;;;;;;4936885;29;20024;-78
2021/06/12 02:57:59;;;;;;;15.57;3.33;;;;;;;;;;4937191;29;20035;-79
2021/06/12 03:00:25;;;;;;;15.20;3.58;;;;;;;;;;4936986;29;20020;-79
2021/06/12 03:02:51;;;;;;;13.45;3.38;;;;;;;;;;4935238;29;20092;-78
2021/06/12 03:05:26;;;;;;;19.45;3.50;;;;;;;;;;4920288;29;20114;-79
2021/06/12 03:07:54;;;;;;;14.38;3.33;;;;;;;;;;4935021;29;20027;-79
2021/06/12 03:10:20;;;;;;;15.02;3.35;;;;;;;;;;4938436;29;20067;-79
2021/06/12 03:12:46;;;;;;;23.40;4.45;;;;;;;;;;4937254;29;20028;-79
2021/06/12 03:15:12;;;;;;;16.73;3.80;;;;;;;;;;4922255;29;20526;-79
2021/06/12 03:17:37;;;;;;;15.43;3.42;;;;;;;;;;4935557;29;20171;-80
2021/06/12 03:20:04;;;;;;;21.95;4.38;;;;;;;;;;4920441;29;20075;-79
2021/06/12 03:22:29;;;;;;;20.63;4.68;;;;;;;;;;4936659;29;20016;-79
2021/06/12 03:24:56;;;;;;;16.02;3.30;;;;;;;;;;4937446;29;20474;-79
2021/06/12 03:27:21;;;;;;;16.17;3.88;;;;;;;;;;4935718;29;20529;-79
2021/06/12 03:29:47;;;;;;;17.42;4.70;;;;;;;;;;4916935;29;20028;-79
2021/06/12 03:32:12;;;;;;;21.33;4.88;;;;;;;;;;4923981;29;20060;-79
2021/06/12 03:34:38;;;;;;;16.27;4.50;;;;;;;;;;4938761;29;20028;-79
2021/06/12 03:37:03;;;;;;;21.15;4.45;;;;;;;;;;4936365;29;20079;-79
2021/06/12 03:39:29;;;;;;;15.25;4.15;;;;;;;;;;4933898;29;20036;-79
2021/06/12 03:41:54;;;;;;;19.35;5.07;;;;;;;;;;4945287;29;20122;-80
2021/06/12 03:44:20;;;;;;;24.40;6.55;;;;;;;;;;4945059;29;20035;-80
2021/06/12 03:46:48;;;;;;;21.55;6.10;;;;;;;;;;4944465;29;20028;-79
2021/06/12 03:49:14;;;;;;;22.70;5.78;;;;;;;;;;4935917;29;20119;-79
2021/06/12 03:51:39;;;;;;;22.83;5.95;;;;;;;;;;4924084;29;20035;-79
2021/06/12 03:54:06;;;;;;;18.77;5.45;;;;;;;;;;4936655;29;20016;-79
2021/06/12 03:56:33;;;;;;;27.92;6.63;;;;;;;;;;4935550;29;20541;-79
2021/06/12 03:58:58;;;;;;;23.65;5.70;;;;;;;;;;4936819;29;20027;-79
2021/06/12 04:01:23;;;;;;;19.30;4.57;;;;;;;;;;4935228;29;20028;-78
2021/06/12 04:03:49;;;;;;;22.50;5.10;;;;;;;;;;4932295;29;20032;-79
2021/06/12 04:06:14;;;;;;;17.85;4.40;;;;;;;;;;4934530;29;20070;-79
2021/06/12 04:08:39;;;;;;;19.83;4.82;;;;;;;;;;4934310;29;20098;-79
2021/06/12 04:11:05;;;;;;;22.55;4.13;;;;;;;;;;4935338;29;20191;-79
2021/06/12 04:13:31;;;;;;;21.48;4.30;;;;;;;;;;4935411;29;20343;-79
2021/06/12 04:15:56;;;;;;;24.13;4.28;;;;;;;;;;4919997;29;20024;-79
2021/06/12 04:18:21;;;;;;;15.95;4.07;;;;;;;;;;4935488;29;20411;-79
2021/06/12 04:20:47;;;;;;;25.02;4.45;;;;;;;;;;4932649;29;20039;-79
2021/06/12 04:23:12;;;;;;;27.40;5.30;;;;;;;;;;4917562;29;20083;-79
2021/06/12 04:25:38;;;;;;;21.25;4.38;;;;;;;;;;4917084;29;20043;-78
2021/06/12 04:28:03;;;;;;;27.13;4.75;;;;;;;;;;4920047;29;20031;-79
2021/06/12 04:30:29;;;;;;;22.98;4.28;;;;;;;;;;4951675;29;20047;-79
2021/06/12 04:32:54;;;;;;;24.25;4.85;;;;;;;;;;4935692;29;20328;-78
2021/06/12 04:35:19;;;;;;;28.02;5.00;;;;;;;;;;4935821;29;20028;-79
2021/06/12 04:37:45;;;;;;;22.17;4.07;;;;;;;;;;4936596;29;20094;-79
2021/06/12 04:40:11;;;;;;;18.05;3.70;;;;;;;;;;4919429;29;20107;-79
2021/06/12 04:42:36;;;;;;;25.25;4.47;;;;;;;;;;4936194;29;20058;-79
2021/06/12 04:45:01;;;;;;;21.98;4.25;;;;;;;;;;4936175;29;20526;-79
2021/06/12 04:47:26;;;;;;;25.50;5.03;;;;;;;;;;4936517;29;20257;-79
2021/06/12 04:49:52;;;;;;;28.17;4.45;;;;;;;;;;4933738;29;20195;-79
2021/06/12 04:52:17;;;;;;;25.25;4.60;;;;;;;;;;4936172;29;20024;-79
2021/06/12 04:54:43;;;;;;;23.52;4.82;;;;;;;;;;4919149;29;20183;-78
2021/06/12 04:57:08;;;;;;;22.92;4.70;;;;;;;;;;4937516;29;20019;-79
2021/06/12 04:59:33;;;;;;;25.58;4.68;;;;;;;;;;4938909;29;20067;-78
2021/06/12 05:01:58;;;;;;;25.20;4.80;;;;;;;;;;4939773;29;20059;-79
2021/06/12 05:04:24;;;;;;;28.30;4.80;;;;;;;;;;4939587;29;20028;-79
2021/06/12 05:06:49;;;;;;;24.77;4.88;;;;;;;;;;4922076;29;20539;-79
2021/06/12 05:09:14;;;;;;;19.45;4.35;;;;;;;;;;4939851;29;20038;-79
2021/06/12 05:11:40;;;;;;;22.05;4.80;;;;;;;;;;4939139;29;20060;-79
2021/06/12 05:14:05;;;;;;;25.60;5.13;;;;;;;;;;4939145;29;20446;-79
2021/06/12 05:16:33;;;;;;;28.98;5.18;;;;;;;;;;4938318;29;20023;-79
2021/06/12 05:18:58;;;;;;;22.42;4.28;;;;;;;;;;4937958;29;20027;-79
2021/06/12 05:21:23;;;;;;;16.65;3.60;;;;;;;;;;4939156;29;20036;-79
2021/06/12 05:23:49;;;;;;;28.35;4.68;;;;;;;;;;4938030;29;20036;-79
2021/06/12 05:26:14;;;;;;;14.45;3.85;;;;;;;;;;4938723;29;20024;-79
2021/06/12 05:28:40;;;;;;;19.35;4.07;;;;;;;;;;4937806;29;20122;-79
2021/06/12 05:31:05;;;;;;;20.08;4.03;;;;;;;;;;4921807;29;20470;-79
2021/06/12 05:33:32;;;;;;;22.85;4.20;;;;;;;;;;4938305;29;20019;-79
2021/06/12 05:35:58;;;;;;;16.88;3.60;;;;;;;;;;4938208;29;20020;-79
2021/06/12 05:38:25;;;;;;;11.50;3.35;;;;;;;;;;4938098;29;20047;-79
2021/06/12 05:40:50;;;;;;;25.73;4.50;;;;;;;;;;4937150;29;20359;-79
2021/06/12 05:43:16;;;;;;;17.65;3.35;;;;;;;;;;4935798;29;20035;-79
2021/06/12 05:45:41;;;;;;;19.17;3.90;;;;;;;;;;4937919;29;20470;-80
2021/06/12 05:48:06;;;;;;;21.10;4.43;;;;;;;;;;4936703;29;20016;-79
2021/06/12 05:50:31;;;;;;;17.02;4.00;;;;;;;;;;4919905;29;20055;-79
2021/06/12 05:52:57;;;;;;;24.05;4.47;;;;;;;;;;4935393;29;20028;-79
2021/06/12 05:55:22;;;;;;;14.45;3.08;;;;;;;;;;4920921;29;20493;-80
2021/06/12 05:57:47;;;;;;;18.77;4.30;;;;;;;;;;4937881;29;20035;-79
2021/06/12 06:00:13;;;;;;;11.45;3.00;;;;;;;;;;4938212;29;20030;-79
2021/06/12 06:02:38;;;;;;;16.35;3.30;;;;;;;;;;4938872;29;20366;-80
2021/06/12 06:05:04;;;;;;;14.10;3.20;;;;;;;;;;4954917;29;20100;-79
2021/06/12 06:07:29;;;;;;;14.10;3.15;;;;;;;;;;4936973;29;20042;-79
2021/06/12 06:09:55;;;;;;;17.27;3.42;;;;;;;;;;4920783;29;20028;-79
2021/06/12 06:12:20;;;;;;;19.60;3.45;;;;;;;;;;4919233;29;20058;-79
2021/06/12 06:14:45;;;;;;;19.85;3.33;;;;;;;;;;4955998;29;20028;-79
2021/06/12 06:17:10;;;;;;;15.80;2.83;;;;;;;;;;4930846;29;20028;-81
2021/06/12 06:19:36;;;;;;;15.93;3.05;;;;;;;;;;4948195;29;20044;-81
2021/06/12 06:22:01;;;;;;;18.58;3.72;;;;;;;;;;4946901;29;20032;-81
2021/06/12 06:24:26;;;;;;;14.07;2.95;;;;;;;;;;4950629;29;20035;-80
2021/06/12 06:29:26;;;;;;;13.90;3.55;;;;;;;;;;5245970;23;20051;-83
2021/06/12 06:31:52;;;;;;;10.40;2.85;;;;;;;;;;5114610;23;20047;-83
2021/06/12 06:34:17;;;;;;;18.42;3.17;;;;;;;;;;4958074;29;20026;-84
2021/06/12 06:36:42;;;;;;;13.40;2.35;;;;;;;;;;5269554;23;20086;-82
2021/06/12 06:39:08;;;;;;;19.20;3.65;;;;;;;;;;4996669;28;20019;-81
2021/06/12 06:41:33;;;;;;;12.85;3.10;;;;;;;;;;4973122;28;20082;-80
2021/06/12 06:43:58;;;;;;;13.40;3.15;;;;;;;;;;4989822;28;20031;-83
2021/06/12 06:46:24;;;;;;;13.48;2.78;;;;;;;;;;4970715;28;20034;-83
2021/06/12 06:48:49;;;;;;;15.07;3.20;;;;;;;;;;4963464;28;20031;-82
2021/06/12 06:51:15;;;;;;;15.85;3.13;;;;;;;;;;4974197;28;20045;-83
2021/06/12 06:53:40;;;;;;;19.50;3.33;;;;;;;;;;4977816;28;20037;-82
2021/06/12 06:56:06;;;;;;;22.70;3.95;;;;;;;;;;4966177;28;20003;-82
2021/06/12 06:58:32;;;;;;;18.92;3.63;;;;;;;;;;4965709;28;20086;-83
2021/06/12 07:00:57;;;;;;;16.15;2.72;;;;;;;;;;4985984;28;20015;-83
2021/06/12 07:03:22;;;;;;;10.35;2.55;;;;;;;;;;4980495;28;20019;-84
2021/06/12 07:05:48;;;;;;;18.67;3.13;;;;;;;;;;4967081;28;20054;-81
2021/06/12 07:10:49;;;;;;;12.07;3.35;;;;;;;;;;5462981;23;20062;-80
2021/06/12 07:13:18;;;;;;;15.10;3.38;;;;;;;;;;4951990;29;20027;-80
2021/06/12 07:15:44;;;;;;;14.48;3.13;;;;;;;;;;4947182;29;20023;-80
2021/06/12 07:18:09;;;;;;;13.13;4.18;;;;;;;;;;4951693;29;20095;-82
2021/06/12 07:20:34;;;;;;;15.77;3.17;;;;;;;;;;4931368;29;20064;-81
2021/06/12 07:22:59;;;;;;;19.67;3.67;;;;;;;;;;4935136;29;20036;-80
2021/06/12 07:25:25;;;;;;;13.80;3.78;;;;;;;;;;4929193;29;20370;-83
2021/06/12 07:27:51;;;;;;;24.05;4.50;;;;;;;;;;4917195;29;20026;-83
2021/06/12 07:30:18;;;;;;;18.02;3.60;;;;;;;;;;4934365;29;20028;-82
2021/06/12 07:32:43;;;;;;;12.40;3.45;;;;;;;;;;4927523;29;20083;-82
2021/06/12 07:35:08;;;;;;;14.77;2.63;;;;;;;;;;4938210;29;20034;-82
2021/06/12 07:37:34;;;;;;;13.55;3.40;;;;;;;;;;4929985;29;20024;-82
2021/06/12 07:39:59;;;;;;;12.65;3.50;;;;;;;;;;4942342;29;20032;-81
2021/06/12 07:42:24;;;;;;;13.02;3.50;;;;;;;;;;4912283;29;20024;-81
2021/06/12 07:44:50;;;;;;;17.23;3.42;;;;;;;;;;4963614;28;20015;-80
2021/06/12 07:47:15;;;;;;;12.20;2.58;;;;;;;;;;4949415;29;20015;-80
2021/06/12 07:49:40;;;;;;;17.45;3.40;;;;;;;;;;4928426;29;20044;-82
2021/06/12 07:52:05;;;;;;;17.95;3.42;;;;;;;;;;4945187;29;20465;-82
2021/06/12 07:54:31;;;;;;;15.52;3.35;;;;;;;;;;4944848;29;20030;-81
2021/06/12 07:56:56;;;;;;;13.60;3.53;;;;;;;;;;4911354;29;20027;-82
2021/06/12 07:59:21;;;;;;;21.58;4.38;;;;;;;;;;4924363;29;20023;-82
2021/06/12 08:01:47;;;;;;;21.33;4.55;;;;;;;;;;4939908;29;20020;-82
2021/06/12 08:04:12;;;;;;;19.00;3.22;;;;;;;;;;4923866;29;20027;-82
2021/06/12 08:06:37;;;;;;;15.75;4.13;;;;;;;;;;4946481;29;20023;-78
2021/06/12 08:09:03;;;;;;;15.85;4.22;;;;;;;;;;4960698;29;20043;-80
2021/06/12 08:11:28;;;;;;;15.95;3.92;;;;;;;;;;4937589;29;20039;-80
2021/06/12 08:13:53;;;;;;;13.23;3.90;;;;;;;;;;4955685;28;20034;-80
2021/06/12 08:16:19;;;;;;;20.58;4.80;;;;;;;;;;4910684;29;20037;-78
2021/06/12 08:18:44;;;;;;;16.13;3.47;;;;;;;;;;4938688;29;20028;-79
2021/06/12 08:21:09;;;;;;;15.02;3.25;;;;;;;;;;4921244;29;20024;-79
2021/06/12 08:23:35;;;;;;;12.55;3.33;;;;;;;;;;4940620;29;20091;-80
2021/06/12 08:26:00;;;;;;;13.93;3.63;;;;;;;;;;4936162;29;20074;-78
2021/06/12 08:28:25;;;;;;;14.80;3.83;;;;;;;;;;4948684;29;20036;-78
2021/06/12 08:30:51;;;;;;;15.48;4.10;;;;;;;;;;4936447;29;20361;-78
2021/06/12 08:33:16;;;;;;;18.10;4.60;;;;;;;;;;4940985;29;20079;-78
2021/06/12 08:35:41;;;;;;;12.45;3.97;;;;;;;;;;4938744;29;20023;-78
2021/06/12 08:38:07;;;;;;;12.90;4.47;;;;;;;;;;4907813;29;20032;-78
2021/06/12 08:40:33;;;;;;;13.43;3.78;;;;;;;;;;4923449;29;20032;-79
2021/06/12 08:42:58;;;;;;;17.13;4.40;;;;;;;;;;4919664;29;20067;-78
2021/06/12 08:45:30;;;;;;;13.70;4.25;;;;;;;;;;4914042;29;20085;-78
2021/06/12 08:47:56;;;;;;;19.17;5.15;;;;;;;;;;4924584;29;20019;-78
2021/06/12 08:50:23;;;;;;;20.45;5.80;;;;;;;;;;4942706;29;20016;-79
2021/06/12 08:52:50;;;;;;;12.60;4.32;;;;;;;;;;4925980;29;20023;-79
2021/06/12 08:55:17;;;;;;;14.50;4.63;;;;;;;;;;4946528;29;20034;-78
2021/06/12 08:57:42;;;;;;;15.02;4.97;;;;;;;;;;4929643;29;20035;-79
2021/06/12 09:00:09;;;;;;;13.25;4.05;;;;;;;;;;4926486;29;20032;-78
2021/06/12 09:02:53;;;;;;;19.67;5.30;;;;;;;;;;4938374;29;20026;-78
2021/06/12 09:05:23;;;;;;;16.43;4.77;;;;;;;;;;4939812;29;20031;-78
2021/06/12 09:08:04;;;;;;;16.92;5.68;;;;;;;;;;4938221;29;20031;-78
2021/06/12 09:10:29;;;;;;;15.13;4.35;;;;;;;;;;4937985;29;20040;-78
2021/06/12 09:12:54;;;;;;;19.20;5.93;;;;;;;;;;4906392;29;20126;-78
2021/06/12 09:15:20;;;;;;;16.70;5.60;;;;;;;;;;4903460;29;20024;-78
2021/06/12 09:17:46;;;;;;;16.98;5.78;;;;;;;;;;4939166;29;20457;-78
2021/06/12 09:20:15;;;;;;;15.95;5.15;;;;;;;;;;4951252;29;20023;-78
2021/06/12 09:22:40;;;;;;;15.63;5.45;;;;;;;;;;4938498;29;20023;-78
2021/06/12 09:25:05;;;;;;;30.33;7.00;;;;;;;;;;4938817;29;20026;-79
2021/06/12 09:27:31;;;;;;;13.95;5.28;;;;;;;;;;4953310;29;20028;-78
2021/06/12 09:30:03;;;;;;;13.07;4.57;;;;;;;;;;4937137;29;20086;-78
2021/06/12 09:32:31;;;;;;;17.27;4.95;;;;;;;;;;4938196;29;20032;-78
2021/06/12 09:35:04;;;;;;;16.33;5.03;;;;;;;;;;4921281;29;20185;-78
2021/06/12 09:37:29;;;;;;;20.05;5.85;;;;;;;;;;4938871;29;20024;-78
2021/06/12 09:39:59;;;;;;;20.60;5.70;;;;;;;;;;4923759;29;20425;-78
2021/06/12 09:42:43;;;;;;;17.23;6.07;;;;;;;;;;4936193;29;20426;-78
2021/06/12 09:45:22;;;;;;;16.20;5.03;;;;;;;;;;4918551;29;20556;-78
2021/06/12 09:47:48;;;;;;;12.45;4.72;;;;;;;;;;4937373;29;20063;-78
2021/06/12 09:50:15;;;;;;;17.08;5.80;;;;;;;;;;4951279;29;20015;-78
2021/06/12 09:52:42;;;;;;;16.77;5.75;;;;;;;;;;4934810;29;20012;-78
2021/06/12 09:55:07;;;;;;;21.17;4.28;;;;;;;;;;4937275;29;20024;-78
2021/06/12 09:57:44;;;;;;;23.63;5.82;;;;;;;;;;4920028;29;20151;-78
2021/06/12 10:00:10;;;;;;;16.15;5.07;;;;;;;;;;4922132;29;20019;-79
2021/06/12 10:02:36;;;;;;;17.88;5.13;;;;;;;;;;4952117;28;20087;-78
2021/06/12 10:05:03;;;;;;;16.50;4.55;;;;;;;;;;4952873;28;20454;-78
2021/06/12 10:07:28;;;;;;;20.10;5.20;;;;;;;;;;4937596;29;20035;-80
2021/06/12 10:09:54;;;;;;;15.60;5.43;;;;;;;;;;4950703;29;20545;-78
2021/06/12 10:12:20;;;;;;;17.10;5.07;;;;;;;;;;4902749;29;20111;-78
2021/06/12 10:14:46;;;;;;;18.05;5.22;;;;;;;;;;4936554;29;20481;-78
2021/06/12 10:17:12;;;;;;;18.30;4.53;;;;;;;;;;4938026;29;20051;-80
2021/06/12 10:19:38;;;;;;;10.07;4.00;;;;;;;;;;4920354;29;20056;-80
2021/06/12 10:22:04;;;;;;;14.70;5.55;;;;;;;;;;4900833;29;20058;-80
2021/06/12 10:24:30;;;;;;;12.20;4.72;;;;;;;;;;4936743;29;20035;-81
2021/06/12 10:26:56;;;;;;;13.82;4.35;;;;;;;;;;4952094;28;20032;-78
2021/06/12 10:29:22;;;;;;;11.80;3.75;;;;;;;;;;4937053;29;20357;-78
2021/06/12 10:31:47;;;;;;;12.00;4.32;;;;;;;;;;4955194;28;20023;-79
2021/06/12 10:34:13;;;;;;;14.40;4.25;;;;;;;;;;4939797;29;20027;-79
2021/06/12 10:36:40;;;;;;;10.23;4.20;;;;;;;;;;4955144;29;20035;-80
2021/06/12 10:39:23;;;;;;;11.88;4.10;;;;;;;;;;4938923;29;20046;-79
2021/06/12 10:42:07;;;;;;;13.43;4.50;;;;;;;;;;4935056;29;20035;-79
2021/06/12 10:44:32;;;;;;;12.77;4.60;;;;;;;;;;4934701;29;20376;-78
2021/06/12 10:46:58;;;;;;;20.30;5.15;;;;;;;;;;4937734;29;20034;-79
2021/06/12 10:49:31;;;;;;;20.30;5.03;;;;;;;;;;4952217;29;20070;-78
2021/06/12 10:51:57;;;;;;;18.92;4.47;;;;;;;;;;4937707;29;20115;-78
2021/06/12 10:54:23;;;;;;;12.15;3.75;;;;;;;;;;4919763;29;20051;-78
2021/06/12 10:56:56;;;;;;;15.85;4.30;;;;;;;;;;4922430;29;20032;-79
2021/06/12 10:59:37;;;;;;;11.98;3.83;;;;;;;;;;4930627;29;20035;-79
2021/06/12 11:02:06;;;;;;;14.60;4.10;;;;;;;;;;4936345;29;20446;-78
2021/06/12 11:04:50;;;;;;;18.95;4.43;;;;;;;;;;4904141;29;20046;-78
2021/06/12 11:07:24;;;;;;;17.20;3.92;;;;;;;;;;4920767;29;20035;-77
2021/06/12 11:09:49;;;;;;;14.23;4.28;;;;;;;;;;4936871;29;20039;-78
2021/06/12 11:12:15;;;;;;;17.80;4.10;;;;;;;;;;4905232;29;20042;-78
2021/06/12 11:14:40;;;;;;;12.77;3.83;;;;;;;;;;4920500;29;20115;-78
2021/06/12 11:19:33;;;;;;;13.00;4.68;;;;;;;;;;4945573;29;20035;-80
2021/06/12 11:22:19;;;;;;;12.97;4.13;;;;;;;;;;4942175;29;20023;-79
2021/06/12 11:24:44;;;;;;;14.50;3.92;;;;;;;;;;4909762;29;20286;-80
2021/06/12 11:27:21;;;;;;;13.23;3.17;;;;;;;;;;4924402;29;20374;-82
2021/06/12 11:30:05;;;;;;;16.90;3.97;;;;;;;;;;4937217;29;20043;-81
2021/06/12 11:32:30;;;;;;;17.88;4.32;;;;;;;;;;4938977;29;20016;-81
2021/06/12 11:34:56;;;;;;;16.25;4.22;;;;;;;;;;4918614;29;20042;-80
2021/06/12 11:37:21;;;;;;;15.20;5.00;;;;;;;;;;4917374;29;20063;-81
2021/06/12 11:39:57;;;;;;;12.23;3.92;;;;;;;;;;4905730;29;20109;-81
2021/06/12 11:42:39;;;;;;;14.85;4.20;;;;;;;;;;4917817;29;20023;-80
2021/06/12 11:45:15;;;;;;;16.52;4.70;;;;;;;;;;4918261;29;20032;-81
2021/06/12 11:47:40;;;;;;;16.30;4.75;;;;;;;;;;4920683;29;20028;-80
2021/06/12 11:50:06;;;;;;;13.45;4.22;;;;;;;;;;4913832;29;20035;-82
2021/06/12 11:52:35;;;;;;;19.65;5.15;;;;;;;;;;4940228;29;20087;-80
2021/06/12 11:55:17;;;;;;;15.02;4.70;;;;;;;;;;4933602;29;20032;-80
2021/06/12 11:57:43;;;;;;;20.13;4.43;;;;;;;;;;4931843;29;20040;-80
2021/06/12 12:00:29;;;;;;;14.02;4.28;;;;;;;;;;4934167;29;20030;-80
2021/06/12 12:03:03;;;;;;;15.52;3.85;;;;;;;;;;4935428;29;20102;-78
2021/06/12 12:05:37;;;;;;;15.32;4.18;;;;;;;;;;4937234;29;20055;-79
2021/06/12 12:08:06;;;;;;;20.13;5.65;;;;;;;;;;4937994;29;20071;-78
2021/06/12 12:10:32;;;;;;;15.68;4.30;;;;;;;;;;4925212;29;20126;-78
2021/06/12 12:12:59;;;;;;;15.27;4.50;;;;;;;;;;4939589;29;20454;-78
2021/06/12 12:15:32;;;;;;;11.20;3.58;;;;;;;;;;4938644;29;20358;-78
2021/06/12 12:18:02;;;;;;;13.57;4.15;;;;;;;;;;4923212;29;20023;-78
2021/06/12 12:20:27;;;;;;;13.98;3.35;;;;;;;;;;4953164;29;20079;-80
2021/06/12 12:22:54;;;;;;;15.25;4.50;;;;;;;;;;4904996;29;20477;-78
2021/06/12 12:25:26;;;;;;;19.77;4.70;;;;;;;;;;4911525;29;20074;-81
2021/06/12 12:28:07;;;;;;;17.33;4.40;;;;;;;;;;4922916;29;20369;-79
2021/06/12 12:30:32;;;;;;;14.30;3.80;;;;;;;;;;4941226;29;20050;-79
2021/06/12 12:33:11;;;;;;;20.58;4.28;;;;;;;;;;4909839;29;20011;-80
2021/06/12 12:35:37;;;;;;;20.65;4.50;;;;;;;;;;4925704;29;20055;-80
2021/06/12 12:38:13;;;;;;;19.55;5.15;;;;;;;;;;4929897;29;20102;-79
2021/06/12 12:40:38;;;;;;;20.63;5.40;;;;;;;;;;4943076;29;20066;-79
2021/06/12 12:43:04;;;;;;;16.00;4.47;;;;;;;;;;4908714;29;20036;-79
2021/06/12 12:45:29;;;;;;;18.77;4.68;;;;;;;;;;4925045;29;20083;-79
2021/06/12 12:47:55;;;;;;;17.33;4.70;;;;;;;;;;4933662;29;20023;-79
2021/06/12 12:50:20;;;;;;;13.85;4.15;;;;;;;;;;4923569;29;20163;-80
2021/06/12 12:52:45;;;;;;;17.02;5.50;;;;;;;;;;4921807;29;20012;-78
2021/06/12 12:55:11;;;;;;;12.95;3.95;;;;;;;;;;4921188;29;20051;-78
2021/06/12 12:57:42;;;;;;;18.05;5.05;;;;;;;;;;4917717;29;20023;-79
2021/06/12 13:00:14;;;;;;;17.00;4.72;;;;;;;;;;4935942;29;20023;-79
2021/06/12 13:02:39;;;;;;;16.35;4.82;;;;;;;;;;4944136;29;20020;-80
2021/06/12 13:05:14;;;;;;;14.02;4.10;;;;;;;;;;4938771;29;20083;-80
2021/06/12 13:07:40;;;;;;;13.82;3.58;;;;;;;;;;4919684;29;20127;-81
2021/06/12 13:10:09;;;;;;;16.80;4.50;;;;;;;;;;4921626;29;20470;-81
2021/06/12 13:12:34;;;;;;;15.85;4.07;;;;;;;;;;4926102;29;20031;-80
2021/06/12 13:15:00;;;;;;;24.65;4.75;;;;;;;;;;4937713;29;20063;-80
2021/06/12 13:17:27;;;;;;;14.10;3.60;;;;;;;;;;4907451;29;20024;-79
2021/06/12 13:19:53;;;;;;;18.05;4.68;;;;;;;;;;4922244;29;20019;-80
2021/06/12 13:22:28;;;;;;;20.45;5.40;;;;;;;;;;4938768;29;20024;-79
2021/06/12 13:25:11;;;;;;;15.00;4.75;;;;;;;;;;4937748;29;20020;-80
2021/06/12 13:27:44;;;;;;;11.98;4.28;;;;;;;;;;4932717;29;20035;-77
2021/06/12 13:30:10;;;;;;;18.55;5.18;;;;;;;;;;4922593;29;20032;-78
2021/06/12 13:32:35;;;;;;;10.25;3.38;;;;;;;;;;4936099;29;20522;-77
2021/06/12 13:35:01;;;;;;;13.77;3.97;;;;;;;;;;4933725;29;20019;-78
2021/06/12 13:37:26;;;;;;;19.42;4.60;;;;;;;;;;4922138;29;20099;-79
2021/06/12 13:39:53;;;;;;;14.80;4.20;;;;;;;;;;4936386;29;20431;-77
2021/06/12 13:42:20;;;;;;;17.63;4.35;;;;;;;;;;4921363;29;20023;-79
2021/06/12 13:45:04;;;;;;;10.38;3.30;;;;;;;;;;4932815;29;20501;-80
2021/06/12 13:47:31;;;;;;;12.13;3.15;;;;;;;;;;4937648;29;20019;-79
2021/06/12 13:49:57;;;;;;;13.65;3.95;;;;;;;;;;4936112;29;20055;-79
2021/06/12 13:52:22;;;;;;;13.52;3.50;;;;;;;;;;4922051;29;20442;-80
2021/06/12 13:54:47;;;;;;;19.20;4.00;;;;;;;;;;4920144;29;20114;-80
2021/06/12 13:57:16;;;;;;;13.65;3.80;;;;;;;;;;4935552;29;20410;-78
2021/06/12 13:59:43;;;;;;;9.13;2.65;;;;;;;;;;4921222;29;20119;-78
2021/06/12 14:02:08;;;;;;;13.65;3.53;;;;;;;;;;4938417;29;20107;-78
2021/06/12 14:04:37;;;;;;;17.45;3.63;;;;;;;;;;4937693;29;20556;-78
2021/06/12 14:07:02;;;;;;;12.25;3.63;;;;;;;;;;4903728;29;20028;-78
2021/06/12 14:09:27;;;;;;;17.52;4.70;;;;;;;;;;4937026;29;20481;-78
2021/06/12 14:11:53;;;;;;;15.50;4.18;;;;;;;;;;4919647;29;20052;-77
2021/06/12 14:14:18;;;;;;;15.38;3.88;;;;;;;;;;4904354;29;20425;-78
2021/06/12 14:16:43;;;;;;;23.55;4.68;;;;;;;;;;4918110;29;20042;-78
2021/06/12 14:19:08;;;;;;;18.40;4.38;;;;;;;;;;4903012;29;20034;-78
2021/06/12 14:21:33;;;;;;;20.05;5.63;;;;;;;;;;4954528;28;20034;-78
2021/06/12 14:23:59;;;;;;;17.40;5.03;;;;;;;;;;4950873;29;20063;-79
2021/06/12 14:26:27;;;;;;;19.38;4.85;;;;;;;;;;4912146;29;20107;-79
2021/06/12 14:28:54;;;;;;;17.95;5.05;;;;;;;;;;4926505;29;20019;-78
2021/06/12 14:31:19;;;;;;;21.67;5.53;;;;;;;;;;4941511;29;20024;-79
2021/06/12 14:33:45;;;;;;;17.52;5.03;;;;;;;;;;4952453;28;20024;-78
2021/06/12 14:36:11;;;;;;;23.50;6.15;;;;;;;;;;4906620;29;20434;-81
2021/06/12 14:38:36;;;;;;;17.27;5.32;;;;;;;;;;4920657;29;20082;-80